logo
App data

AIRHEART - Tales of broken Wings

Airheart is a dieselpunk airplane action rogue like game, where every colorful level is built on top of the previous one, all the way up to the stratosphere. Welcome to Granaria, a flying city in the clouds. Meet Amelia - a young pilot and fisherwoman wishing to reach the abundant worlds edge.
Store | Hub | SteamDB | Site
Developer: Blindflug Studios AG Publisher: Blindflug Studios AG
Genre: Action, Indie
Languages: English, French, Italian, German, Spanish - Spain, Japanese, Korean, Polish, Portuguese - Brazil, Simplified Chinese
Tags: Action (108), Indie (107), Action Roguelike (100), Philosophical (72), Female Protagonist (70), Rogue-lite (68), Colorful (65), Twin Stick Shooter (65), Shoot 'Em Up (63), Steampunk (57), Early Access (57), Flight (55), Shooter (55), Top-Down Shooter (54), Cartoony (53), Great Soundtrack (53), Controller (53), Rogue-like (52), Perma Death (51), Fishing (50)
Category: Single-player, Steam Achievements, Full controller support, Steam Cloud
Release date: Jul 23, 2018
Price: $14.99
Old userscore: 86% Metascore: 62%
Owners: 0 .. 20,000
Followers: 2,910
Peak concurrent players yesterday: 1

Steam Spy is still in beta, so expect major bugs.

Owners data:

Access restricted.

This feature is only available to users with special access rights. Sorry.

If you want to proceed, you need to register or log in first and then back Steam Spy on Patreon. Look for Indie or Pro pledge.

Don't forget to use the same email as on Steam Spy!

Audience in 2 weeks:

Access restricted.

This feature is only available to users with special access rights. Sorry.

If you want to proceed, you need to register or log in first and then back Steam Spy on Patreon. Look for Indie or Pro pledge.

Don't forget to use the same email as on Steam Spy!

Peak daily concurrent players:

CCU data courtesy of SteamDB. Used with permission.

Hourly concurrent players:

Daily Twitch stats:

Hourly Twitch stats:

Followers over time

Access restricted.

This feature is only available to users with special access rights. Sorry.

If you want to proceed, you need to register or log in first and then back Steam Spy on Patreon. Look for Indie or Pro pledge.

Don't forget to use the same email as on Steam Spy!

Views for top 50 videos on YouTube for this game:

Games similar to this one:

# Game Release date
Price
Score rank
(Userscore / Metascore)
Owners
Players
Playtime (Median)
1 Cosmic Leap Mar 17, 2016 $0.99N/A (N/A)0 .. 20,0000%00:00 (00:00)
2 Binaries Apr 4, 2016 $9.99N/A (N/A)0 .. 20,0000%00:00 (00:00)
3 Godus Wars Feb 3, 2016 $14.99N/A (N/A)50,000 .. 100,0000%00:00 (00:00)
4 Mimpi Dreams Mar 22, 2016 FreeN/A (N/A)20,000 .. 50,0000%00:00 (00:00)
5 Bell Ringer Mar 18, 2016 $6.99N/A (N/A)100,000 .. 200,0000%00:00 (00:00)
6 Bunker Punks May 28, 2018 $4.49N/A (N/A)0 .. 20,0000%00:00 (00:00)
7 Space Moth DX Jan 22, 2016 $4.99N/A (N/A)20,000 .. 50,0000%00:00 (00:00)
8 Amigdala Mar 28, 2016 $5.99N/A (N/A)20,000 .. 50,0000%00:00 (00:00)
9 PERFECT ANGLE: The puzzle game based on optical illusions Dec 22, 2015 $9.99N/A (N/A)50,000 .. 100,0000%00:00 (00:00)
10 Brute May 17, 2017 $6.99N/A (N/A)0 .. 20,0000%00:00 (00:00)
11 IMSCARED Feb 3, 2016 $3.99N/A (N/A)20,000 .. 50,0000%00:00 (00:00)
12 Hero Quest: Tower Conflict Apr 13, 2016 $0.99N/A (N/A)200,000 .. 500,0000%00:00 (00:00)
13 Doodle Kingdom Jun 9, 2016 $8.99N/A (N/A)20,000 .. 50,0000%00:00 (00:00)
14 CrazyCars3D Mar 28, 2016 $2.99N/A (N/A)50,000 .. 100,0000%00:00 (00:00)
15 Rencounter Nov 4, 2016 $5.99N/A (N/A)20,000 .. 50,0000%00:00 (00:00)
16 Mainlining Jan 26, 2017 $2.59N/A (N/A/73%)0 .. 20,0000%00:00 (00:00)
17 10 Second Ninja X Jul 19, 2016 $9.99N/A (N/A)20,000 .. 50,0000%00:00 (00:00)
18 Frederic: Evil Strikes Back May 23, 2014 $0.79N/A (N/A)100,000 .. 200,0000%00:00 (00:00)
19 OTTTD Aug 6, 2014 $7.99N/A (N/A)20,000 .. 50,0000%00:00 (00:00)
20 Rhythm Destruction Jun 16, 2014 $4.99N/A (N/A)50,000 .. 100,0000%00:00 (00:00)
21 The Masterplan Jun 4, 2015 $19.99N/A (N/A/68%)100,000 .. 200,0000%00:00 (00:00)
22 Ballad of Solar Apr 18, 2013 $6.99N/A (N/A)0 .. 20,0000%00:00 (00:00)
23 A City Sleeps Oct 16, 2014 $9.99N/A (N/A)20,000 .. 50,0000%00:00 (00:00)
24 Boson X Sep 15, 2014 $2.99N/A (N/A)50,000 .. 100,0000%00:00 (00:00)
25 The Waste Land Sep 16, 2014 $9.99N/A (N/A)0 .. 20,0000%00:00 (00:00)
26 TRISTOY Jan 15, 2015 $6.99N/A (N/A/49%)20,000 .. 50,0000%00:00 (00:00)
27 Velocibox Sep 8, 2014 $4.99N/A (N/A)50,000 .. 100,0000%00:00 (00:00)
28 Iron Fisticle Sep 16, 2014 $8.99N/A (N/A)20,000 .. 50,0000%00:00 (00:00)
29 Squishy the Suicidal Pig Oct 23, 2014 $5.99N/A (N/A)200,000 .. 500,0000%00:00 (00:00)
30 Fancy Skulls Jun 16, 2014 $8.99N/A (N/A)20,000 .. 50,0000%00:00 (00:00)
31 Great Permutator Sep 15, 2014 $6.99N/A (N/A)20,000 .. 50,0000%00:00 (00:00)
32 Curses 'N Chaos Aug 18, 2015 $9.99N/A (N/A)20,000 .. 50,0000%00:00 (00:00)
33 Ninja Pizza Girl Sep 30, 2015 $6.99N/A (N/A/82%)50,000 .. 100,0000%00:00 (00:00)
34 Back to Bed Aug 6, 2014 $5.99N/A (N/A)500,000 .. 1,000,0000%00:00 (00:00)
35 BIT.TRIP BEAT Nov 2, 2010 $9.99N/A (N/A)200,000 .. 500,0000%00:00 (00:00)
36 Unmechanical Aug 8, 2012 $9.99N/A (N/A/74%)100,000 .. 200,0000%00:00 (00:00)
37 Super Splatters Jun 26, 2013 N/AN/A (N/A/73%)100,000 .. 200,0000%00:00 (00:00)
38 Sugar Cube: Bittersweet Factory Nov 7, 2012 $6.99N/A (N/A)20,000 .. 50,0000%00:00 (00:00)
39 Ms. Splosion Man Apr 3, 2013 $9.99N/A (N/A)50,000 .. 100,0000%00:00 (00:00)
40 Party of Sin Dec 13, 2012 $5.99N/A (N/A)50,000 .. 100,0000%00:00 (00:00)
41 SOL: Exodus Jan 25, 2012 $7.99N/A (N/A/57%)50,000 .. 100,0000%00:00 (00:00)
42 Home Jun 1, 2012 $4.99N/A (N/A/69%)200,000 .. 500,0000%00:00 (00:00)
43 Titan Attacks! Feb 3, 2012 $9.99N/A (N/A)100,000 .. 200,0000%00:00 (00:00)
44 Ultratron Mar 18, 2013 $9.99N/A (N/A)50,000 .. 100,0000%00:00 (00:00)
45 BIT.TRIP CORE Oct 2, 2012 $9.99N/A (N/A)20,000 .. 50,0000%00:00 (00:00)
46 Cargo Commander Nov 1, 2012 $2.99N/A (N/A)100,000 .. 200,0000%00:00 (00:00)
47 BIT.TRIP VOID Dec 19, 2012 $9.99N/A (N/A)0 .. 20,0000%00:00 (00:00)
48 Puddle Nov 9, 2012 $7.99N/A (N/A)50,000 .. 100,0000%00:00 (00:00)
49 Tales From Space: Mutant Blobs Attack Aug 15, 2012 $9.99N/A (N/A/83%)100,000 .. 200,0000%00:00 (00:00)
50 Papo & Yo Apr 18, 2013 $14.99N/A (N/A/70%)200,000 .. 500,0000%00:00 (00:00)
51 All Zombies Must Die!: Scorepocalypse Apr 19, 2012 $4.99N/A (N/A)20,000 .. 50,0000%00:00 (00:00)
52 OPUS: The Day We Found Earth Apr 22, 2016 $8.99N/A (N/A)50,000 .. 100,0000%00:00 (00:00)
53 Super Duper Party Pooper Jun 6, 2016 $0.99N/A (N/A/40%)100,000 .. 200,0000%00:00 (00:00)
54 Wrath of Anna Apr 2, 2018 $19.99N/A (N/A)20,000 .. 50,0000%00:00 (00:00)
55 DashBored Jun 13, 2016 $4.99N/A (N/A)20,000 .. 50,0000%00:00 (00:00)
56 Dashy Square Apr 26, 2016 $2.99N/A (N/A)0 .. 20,0000%00:00 (00:00)
57 Bohemian Killing Jul 21, 2016 $12.99N/A (N/A/55%)0 .. 20,0000%00:00 (00:00)
58 NORTH Apr 27, 2016 $1.99N/A (N/A)200,000 .. 500,0000%00:00 (00:00)
59 You Deserve Aug 19, 2016 $0.99N/A (N/A)20,000 .. 50,0000%00:00 (00:00)
60 Deathwave Jun 9, 2016 $4.99N/A (N/A)0 .. 20,0000%00:00 (00:00)
61 Dinosaur Forest May 17, 2017 $1.99N/A (N/A)50,000 .. 100,0000%00:00 (00:00)
62 上帝之城 I:监狱帝国 [City of God I - Prison Empire] Jul 9, 2018 $18.99N/A (N/A)50,000 .. 100,0000%00:00 (00:00)
63 Joana's Life Sep 1, 2016 $5.99N/A (N/A)50,000 .. 100,0000%00:00 (00:00)
64 Scanner Sombre Apr 26, 2017 $5.99N/A (N/A/67%)100,000 .. 200,0000%00:00 (00:00)
65 It Comes Around - A Kinetic Novel Sep 29, 2016 $2.99N/A (N/A)20,000 .. 50,0000%00:00 (00:00)
66 Star Drifter Jun 1, 2016 $0.49N/A (N/A)200,000 .. 500,0000%00:00 (00:00)
67 Starship Annihilator Sep 2, 2016 $0.99N/A (N/A)50,000 .. 100,0000%00:00 (00:00)
68 Karma Miwa Aug 12, 2016 $0.99N/A (N/A)20,000 .. 50,0000%00:00 (00:00)
69 iO Dec 5, 2014 $4.99N/A (N/A)50,000 .. 100,0000%00:00 (00:00)
70 Ephemerid: A Musical Adventure Feb 3, 2015 $1.99N/A (N/A)20,000 .. 50,0000%00:00 (00:00)
71 Horizon Shift May 29, 2015 $1.49N/A (N/A)50,000 .. 100,0000%00:00 (00:00)
72 Sky Mercenaries Dec 16, 2014 $9.99N/A (N/A)20,000 .. 50,0000%00:00 (00:00)
73 Super Life of Pixel Dec 20, 2018 $9.99N/A (N/A)20,000 .. 50,0000%00:00 (00:00)
74 Chronicles of a Dark Lord: Episode 1 Tides of Fate Complete Dec 19, 2014 $0.99N/A (N/A)50,000 .. 100,0000%00:00 (00:00)
75 The Deer God Feb 27, 2015 $14.99N/A (N/A/59%)20,000 .. 50,0000%00:00 (00:00)
76 Four Sided Fantasy Aug 30, 2016 $9.99N/A (N/A)0 .. 20,0000%00:00 (00:00)
77 Pix the Cat Jan 29, 2015 $9.99N/A (N/A/77%)50,000 .. 100,0000%00:00 (00:00)
78 Bermuda Mar 17, 2015 $2.99N/A (N/A)50,000 .. 100,0000%00:00 (00:00)
79 Tulpa Jan 29, 2015 $2.99N/A (N/A)50,000 .. 100,0000%00:00 (00:00)
80 TIMEframe Jul 7, 2015 $5.99N/A (N/A)50,000 .. 100,0000%00:00 (00:00)
81 Phoenix Force Nov 13, 2014 $0.99N/A (N/A)50,000 .. 100,0000%00:00 (00:00)
82 Tomb of Tyrants Jun 25, 2015 $7.99N/A (N/A)20,000 .. 50,0000%00:00 (00:00)
83 A Druid's Duel Feb 25, 2015 $7.99N/A (N/A/70%)0 .. 20,0000%00:00 (00:00)
84 On A Roll 3D Feb 12, 2015 $3.99N/A (N/A)50,000 .. 100,0000%00:00 (00:00)
85 Dwarf Tower May 5, 2014 $0.99N/A (N/A)20,000 .. 50,0000%00:00 (00:00)
86 Introvert Quest Mar 15, 2017 $4.99N/A (N/A)50,000 .. 100,0000%00:00 (00:00)
87 Please, Don't Touch Anything 3D Dec 7, 2016 $4.49N/A (N/A)20,000 .. 50,0000%00:00 (00:00)
88 Distant Space Dec 20, 2016 $0.49N/A (N/A)50,000 .. 100,0000%00:00 (00:00)
89 mr.President Prologue Episode Sep 20, 2016 $0.99N/A (N/A)50,000 .. 100,0000%00:00 (00:00)
90 Mistwood Heroes Dec 30, 2016 $0.99N/A (N/A)0 .. 20,0000%00:00 (00:00)
91 BoomTown! Deluxe Oct 14, 2016 $1.99N/A (N/A)20,000 .. 50,0000%00:00 (00:00)
92 Project LUX Feb 2, 2018 $24.99N/A (N/A)0 .. 20,0000%00:00 (00:00)
93 Pixel Gladiator Sep 8, 2017 $4.99N/A (N/A)20,000 .. 50,0000%00:00 (00:00)
94 GORN Jul 18, 2019 $19.99N/A (N/A/85%)200,000 .. 500,00011.11%00:51 (00:17)
95 Snake Pass Mar 28, 2017 $19.99N/A (N/A/71%)100,000 .. 200,0000%00:00 (00:00)
96 Open Sorcery Feb 22, 2017 $3.99N/A (N/A)0 .. 20,0000%00:00 (00:00)
97 Wayout Nov 4, 2016 $0.99N/A (N/A)50,000 .. 100,0000%00:00 (00:00)
98 Guns of Icarus Alliance Mar 31, 2017 $4.99N/A (N/A)50,000 .. 100,0000%00:00 (00:00)
99 Zolg Dec 2, 2016 $0.99N/A (N/A)20,000 .. 50,0000%00:00 (00:00)
100 The Archotek Project Apr 28, 2017 $4.99N/A (N/A)200,000 .. 500,0000%00:00 (00:00)
101 Witch It May 31, 2017 $14.99N/A (N/A)200,000 .. 500,0008.57%02:14 (02:03)
102 Glorkian Warrior: The Trials Of Glork Mar 24, 2015 $3.99N/A (N/A)20,000 .. 50,0000%00:00 (00:00)
103 Leo’s Fortune - HD Edition Sep 8, 2015 $6.99N/A (N/A)0 .. 20,0000%00:00 (00:00)
104 It came from space and ate our brains Mar 19, 2015 $14.99N/A (N/A)50,000 .. 100,0000%00:00 (00:00)
105 Centauri Sector Jun 24, 2015 $4.99N/A (N/A)20,000 .. 50,0000%00:00 (00:00)
106 Disillusions Manga Horror Apr 6, 2013 $0.99N/A (N/A)20,000 .. 50,0000%00:00 (00:00)
107 Home is Where One Starts... May 12, 2015 $2.99N/A (N/A)20,000 .. 50,0000%00:00 (00:00)
108 Rats - Time is running out! Aug 19, 2015 $4.99N/A (N/A)50,000 .. 100,0000%00:00 (00:00)
109 Beyond Eyes Aug 11, 2015 $14.99N/A (N/A/60%)100,000 .. 200,0000%00:00 (00:00)
110 Scribble Space Jun 1, 2015 $1.99N/A (N/A)20,000 .. 50,0000%00:00 (00:00)
111 Orbit HD Mar 18, 2015 $1.99N/A (N/A)20,000 .. 50,0000%00:00 (00:00)
112 Reflections Jun 26, 2015 $9.99N/A (N/A)0 .. 20,0000%00:00 (00:00)
113 Inside My Radio May 11, 2015 $14.99N/A (N/A/68%)20,000 .. 50,0000%00:00 (00:00)
114 An Octave Higher Mar 27, 2015 $11.99N/A (N/A)0 .. 20,0000%00:00 (00:00)
115 Gryphon Knight Epic Aug 20, 2015 $6.99N/A (N/A/55%)20,000 .. 50,0000%00:00 (00:00)
116 Star Horizon May 28, 2015 $4.99N/A (N/A)20,000 .. 50,0000%00:00 (00:00)
117 Luckslinger Jul 16, 2015 $9.99N/A (N/A/76%)20,000 .. 50,0000%00:00 (00:00)
118 Bunker - The Underground Game May 21, 2015 $3.99N/A (N/A/70%)0 .. 20,0000%00:00 (00:00)
119 Knytt Underground Oct 25, 2013 $6.99N/A (N/A)50,000 .. 100,0000%00:00 (00:00)
120 Godus $14.99N/A (N/A)50,000 .. 100,0000%00:00 (00:00)
121 Omegalodon Mar 9, 2012 $9.99N/A (N/A)20,000 .. 50,0000%00:00 (00:00)
122 Wake $4.99N/A (N/A)0 .. 20,0000%00:00 (00:00)
123 Escape Goat Jun 14, 2012 $4.99N/A (N/A)50,000 .. 100,0000%00:00 (00:00)
124 Zack Zero Apr 29, 2013 $2.99N/A (N/A)50,000 .. 100,0000%00:00 (00:00)
125 Solar Flux Oct 24, 2013 $9.99N/A (N/A)100,000 .. 200,0000%00:00 (00:00)
126 Element4l May 24, 2013 $8.99N/A (N/A/77%)50,000 .. 100,0000%00:00 (00:00)
127 Maia Nov 23, 2018 $24.99N/A (N/A)50,000 .. 100,0000%00:00 (00:00)
128 Intake Nov 5, 2013 $9.99N/A (N/A)20,000 .. 50,0000%00:00 (00:00)
129 FOTONICA Nov 6, 2014 $14.99N/A (N/A/71%)50,000 .. 100,0000%00:00 (00:00)
130 Super Puzzle Platformer Deluxe May 24, 2013 $7.99N/A (N/A)50,000 .. 100,0000%00:00 (00:00)
131 Gentlemen! Nov 5, 2013 $4.99N/A (N/A)20,000 .. 50,0000%00:00 (00:00)
132 Poöf Nov 8, 2013 $6.99N/A (N/A)20,000 .. 50,0000%00:00 (00:00)
133 Escape Goat 2 Mar 24, 2014 $9.99N/A (N/A/76%)50,000 .. 100,0000%00:00 (00:00)
134 The Novelist Dec 10, 2013 $4.99N/A (N/A/66%)100,000 .. 200,0007.14%02:21 (00:47)
135 Dream Jul 31, 2015 $8.99N/A (N/A/59%)20,000 .. 50,0000%00:00 (00:00)
136 Hare In The Hat Apr 1, 2015 $1.99N/A (N/A)20,000 .. 50,0000%00:00 (00:00)
137 Season of 12 Colors Mar 14, 2016 $2.99N/A (N/A)20,000 .. 50,0000%00:00 (00:00)
138 Spellsworn Mar 13, 2018 FreeN/A (N/A)100,000 .. 200,0009.09%00:11 (00:03)
139 Tin Star Feb 21, 2014 $4.99N/A (N/A)0 .. 20,0000%00:00 (00:00)
140 Luna Sky Oct 2, 2015 $12.99N/A (N/A)50,000 .. 100,0000%00:00 (00:00)
141 The Adventures of Mr. Bobley Jun 30, 2015 $0.99N/A (N/A)50,000 .. 100,0000%00:00 (00:00)
142 BRAWL Aug 13, 2015 $14.99N/A (N/A)0 .. 20,0000%00:00 (00:00)
143 Monument Jun 5, 2015 $3.99N/A (N/A)20,000 .. 50,0000%00:00 (00:00)
144 Broken Bots Jun 7, 2016 $6.99N/A (N/A)0 .. 20,0000%00:00 (00:00)
145 Sky Rogue Aug 24, 2017 $19.99N/A (N/A)50,000 .. 100,0000%00:00 (00:00)
146 Vernon's Legacy Sep 23, 2016 $11.99N/A (N/A)0 .. 20,0000%00:00 (00:00)
147 Action Alien Jun 26, 2015 $3.99N/A (N/A)50,000 .. 100,0000%00:00 (00:00)
148 Pixel Star May 22, 2015 $2.99N/A (N/A)20,000 .. 50,0000%00:00 (00:00)
149 Dead In Bermuda Aug 27, 2015 $14.99N/A (N/A)20,000 .. 50,0000%00:00 (00:00)
150 Polyball Dec 1, 2017 $14.99N/A (N/A)0 .. 20,0000%00:00 (00:00)
151 Aviary Attorney Dec 21, 2015 $14.99N/A (N/A/77%)50,000 .. 100,0005.26%03:09 (01:03)
152 Treeker: The Lost Glasses May 13, 2015 $4.99N/A (N/A)0 .. 20,0000%00:00 (00:00)
153 Montas Mar 24, 2014 $9.99N/A (N/A)20,000 .. 50,0000%00:00 (00:00)
154 Montague's Mount Nov 19, 2013 $4.99N/A (N/A/39%)20,000 .. 50,0000%00:00 (00:00)
155 Jones On Fire Mar 27, 2015 $2.99N/A (N/A)50,000 .. 100,0000%00:00 (00:00)
156 Ballpoint Universe - Infinite Dec 17, 2013 $3.99N/A (N/A)50,000 .. 100,0000%00:00 (00:00)
157 10 Second Ninja Mar 5, 2014 $1.99N/A (N/A/72%)50,000 .. 100,0000%00:00 (00:00)
158 Journal Feb 17, 2014 $9.99N/A (N/A/59%)20,000 .. 50,0000%00:00 (00:00)
159 Labyrinthine Dreams May 26, 2015 $1.99N/A (N/A)50,000 .. 100,0000%00:00 (00:00)
160 STARWHAL Sep 29, 2014 $11.99N/A (N/A)50,000 .. 100,0000%00:00 (00:00)
161 Imagine Earth Apr 30, 2020 $19.99N/A (N/A)0 .. 20,0000%00:00 (00:00)
162 Full Bore May 6, 2014 $14.99N/A (N/A/72%)20,000 .. 50,0000%00:00 (00:00)
163 T.E.C. 3001 Apr 10, 2014 N/AN/A (N/A)20,000 .. 50,0000%00:00 (00:00)
164 A-Men Jan 25, 2014 $9.99N/A (N/A)0 .. 20,0000%00:00 (00:00)
165 Munin Jun 10, 2014 $4.99N/A (N/A/68%)100,000 .. 200,0000%00:00 (00:00)
166 Imagine Me Mar 14, 2014 $2.99N/A (N/A)20,000 .. 50,00020%04:01 (02:00)
167 Warring States Jan 29, 2018 $18.99N/A (N/A)0 .. 20,0000%00:00 (00:00)
168 Procyon Feb 26, 2014 $3.99N/A (N/A)20,000 .. 50,0000%00:00 (00:00)
169 Survivor Squad Nov 8, 2013 $2.99N/A (N/A)100,000 .. 200,0000%00:00 (00:00)
170 none Nov 4, 2015 N/AN/A (N/A)20,000 .. 50,0000%00:00 (00:00)
171 Moonbase 332 Sep 18, 2015 $4.99N/A (N/A)20,000 .. 50,0000%00:00 (00:00)
172 Super Trench Attack 2 Nov 6, 2015 $4.99N/A (N/A)20,000 .. 50,0000%00:00 (00:00)
173 Dragon's Wake Dec 10, 2015 $3.99N/A (N/A)0 .. 20,0000%00:00 (00:00)
174 Earth Overclocked Dec 4, 2015 $4.99N/A (N/A)20,000 .. 50,0000%00:00 (00:00)
175 Kitchen Simulator 2015 Sep 4, 2015 $0.99N/A (N/A)20,000 .. 50,0000%00:00 (00:00)
176 iZBOT Sep 1, 2015 $11.99N/A (N/A)20,000 .. 50,0000%00:00 (00:00)
177 ChargeShot Sep 18, 2015 $9.99N/A (N/A)20,000 .. 50,0000%00:00 (00:00)
178 Redemption: Eternal Quest Aug 28, 2015 $1.99N/A (N/A)100,000 .. 200,0000%00:00 (00:00)
179 Press X to Not Die Oct 6, 2017 $2.99N/A (N/A)50,000 .. 100,0000%00:00 (00:00)
180 Void Invaders Aug 14, 2015 $2.99N/A (N/A)20,000 .. 50,0000%00:00 (00:00)
181 1,000 Heads Among the Trees Dec 11, 2015 $4.99N/A (N/A)100,000 .. 200,0000%00:00 (00:00)
182 Blaster Shooter GunGuy! Aug 10, 2015 $1.99N/A (N/A)50,000 .. 100,0000%00:00 (00:00)
183 Timber and Stone Oct 20, 2015 $4.99N/A (N/A)20,000 .. 50,0000%00:00 (00:00)
184 Wild Island Quest Sep 4, 2015 $0.49N/A (N/A)50,000 .. 100,0000%00:00 (00:00)
185 Morphine Oct 26, 2015 $2.99N/A (N/A)20,000 .. 50,0000%00:00 (00:00)
186 Shmadow Nov 3, 2015 $1.99N/A (N/A)20,000 .. 50,0000%00:00 (00:00)
187 Road Not Taken Aug 5, 2014 $14.99N/A (N/A/75%)50,000 .. 100,0000%00:00 (00:00)
188 Kromaia Oct 23, 2014 $19.99N/A (N/A/68%)20,000 .. 50,0000%00:00 (00:00)
189 Pivvot Jul 14, 2014 $4.99N/A (N/A)0 .. 20,0000%00:00 (00:00)
190 ReignMaker Apr 16, 2014 $14.99N/A (N/A)50,000 .. 100,0000%00:00 (00:00)
191 Stranded May 20, 2014 $0.99N/A (N/A)20,000 .. 50,0000%00:00 (00:00)
192 Volt Apr 14, 2014 $0.99N/A (N/A)50,000 .. 100,00016.67%03:05 (01:01)
193 The Promised Land Jul 11, 2012 $6.99N/A (N/A)20,000 .. 50,0000%00:00 (00:00)
194 Slip Apr 28, 2014 $0.99N/A (N/A)20,000 .. 50,0000%00:00 (00:00)
195 TownCraft Feb 25, 2015 $9.99N/A (N/A)0 .. 20,0000%00:00 (00:00)
196 Vitrum Sep 25, 2012 $1.99N/A (N/A)0 .. 20,0000%00:00 (00:00)
197 Dreaming Sarah Mar 12, 2015 $0.59N/A (N/A)100,000 .. 200,0000%00:00 (00:00)
198 Three Dead Zed Jul 7, 2014 $5.99N/A (N/A)50,000 .. 100,0000%00:00 (00:00)
199 Captain Forever Remix Jun 3, 2016 $9.99N/A (N/A)50,000 .. 100,0000%00:00 (00:00)
200 Uriel's Chasm Sep 12, 2014 $4.99N/A (N/A)200,000 .. 500,0000%00:00 (00:00)
201 Frederic: Resurrection of Music May 16, 2014 $0.5N/A (N/A)100,000 .. 200,0000%00:00 (00:00)
202 Arson and Plunder: Unleashed Sep 25, 2015 $1.49N/A (N/A)20,000 .. 50,0000%00:00 (00:00)
203 Rabbit Hole 3D: Steam Edition Apr 25, 2014 $2.99N/A (N/A)50,000 .. 100,0000%00:00 (00:00)

Tags over time:

Access restricted.

This feature is only available to users with special access rights. Sorry.

If you want to proceed, you need to register or log in first and then back Steam Spy on Patreon. Look for Indie or Pro pledge.

Don't forget to use the same email as on Steam Spy!

Owners of this game also own:

Access restricted.

This feature is only available to users with special access rights. Sorry.

If you want to proceed, you need to register or log in first and then back Steam Spy on Patreon. Look for Indie or Pro pledge.

Don't forget to use the same email as on Steam Spy!

Playtime distribution:

Access restricted.

This feature is only available to users with special access rights. Sorry.

If you want to proceed, you need to register or log in first and then back Steam Spy on Patreon. Look for Indie or Pro pledge.

Don't forget to use the same email as on Steam Spy!

Playtime (2 weeks):

Access restricted.

This feature is only available to users with special access rights. Sorry.

If you want to proceed, you need to register or log in first and then back Steam Spy on Patreon. Look for Indie or Pro pledge.

Don't forget to use the same email as on Steam Spy!

User reviews:

Login required.

Please register or log in to see this information.